createdAt,value
2023-03-29T18:37:46.124Z,63.1262
2023-03-29T18:38:47.948Z,65.4712
2023-03-29T18:39:49.582Z,65.9900
2023-03-29T18:40:51.333Z,65.7565
2023-03-29T18:41:53.020Z,65.2641
2023-03-29T18:42:54.761Z,64.7403
2023-03-29T18:43:56.402Z,64.2531
2023-03-29T18:44:58.162Z,63.9626
2023-03-29T18:45:59.945Z,63.6516
2023-03-29T18:47:01.702Z,63.2606
2023-03-29T18:48:03.352Z,62.8943
2023-03-29T18:49:05.066Z,62.4325
2023-03-29T18:50:06.717Z,62.0555
2023-03-29T18:51:08.522Z,61.8494
2023-03-29T18:52:10.130Z,61.6009
2023-03-29T18:53:11.875Z,61.3865
2023-03-29T18:54:13.590Z,61.2928
2023-03-29T18:55:15.297Z,61.0518
2023-03-29T18:56:17.024Z,61.0178
2023-03-29T18:57:18.840Z,60.7726
2023-03-29T18:58:20.453Z,60.7454
2023-03-29T18:59:22.161Z,60.8566
2023-03-29T19:00:23.867Z,60.6301
2023-03-29T19:01:25.722Z,60.9019
2023-03-29T19:02:27.350Z,60.5835
2023-03-29T19:03:29.212Z,60.1754
2023-03-29T19:18:48.734Z,53.3560
2023-03-29T19:19:50.500Z,56.1489
2023-03-29T19:20:52.205Z,57.3031
2023-03-29T19:21:53.918Z,57.7179
2023-03-29T19:22:55.639Z,57.8211
2023-03-29T19:23:57.386Z,58.0131
2023-03-29T19:24:59.045Z,57.8591
2023-03-29T19:26:00.855Z,57.3122
2023-03-29T19:27:02.532Z,57.7113
2023-03-29T19:28:04.258Z,57.8529
2023-03-29T19:29:05.931Z,57.4806
2023-03-29T19:30:07.676Z,57.5378
2023-03-29T19:31:09.382Z,57.4691
2023-03-29T19:32:11.123Z,57.5008
2023-03-29T19:33:12.857Z,57.4201
2023-03-29T19:34:14.510Z,57.3256
2023-03-29T19:35:16.203Z,57.1862
2023-03-29T19:36:17.979Z,57.0976
2023-03-29T19:37:19.692Z,57.0308
2023-03-29T19:38:21.393Z,57.0308
2023-03-29T19:39:23.173Z,57.0526
2023-03-29T19:40:24.789Z,56.9192
2023-03-29T19:41:26.509Z,56.7942
2023-03-29T19:42:28.235Z,56.7609
2023-03-29T19:43:29.953Z,56.7149
2023-03-29T19:44:31.653Z,56.6951
